sensor_id;sensor_type;location;lat;lon;timestamp;temperature;humidity
15036;DHT22;7615;48.574;13.474;2023-07-13T00:00:48;20.00;99.90
15036;DHT22;7615;48.574;13.474;2023-07-13T00:03:14;20.00;99.90
15036;DHT22;7615;48.574;13.474;2023-07-13T00:05:44;20.10;99.90
15036;DHT22;7615;48.574;13.474;2023-07-13T00:08:11;20.30;99.90
15036;DHT22;7615;48.574;13.474;2023-07-13T00:10:41;20.40;99.90
15036;DHT22;7615;48.574;13.474;2023-07-13T00:13:09;20.40;99.90
15036;DHT22;7615;48.574;13.474;2023-07-13T00:15:36;20.50;99.90
15036;DHT22;7615;48.574;13.474;2023-07-13T00:18:03;20.50;99.90
15036;DHT22;7615;48.574;13.474;2023-07-13T00:20:30;20.50;99.90
15036;DHT22;7615;48.574;13.474;2023-07-13T00:23:00;20.00;99.90
15036;DHT22;7615;48.574;13.474;2023-07-13T00:25:27;20.50;99.90
15036;DHT22;7615;48.574;13.474;2023-07-13T00:27:54;20.50;99.90
15036;DHT22;7615;48.574;13.474;2023-07-13T00:30:22;20.50;99.90
15036;DHT22;7615;48.574;13.474;2023-07-13T00:32:49;20.50;99.90
15036;DHT22;7615;48.574;13.474;2023-07-13T00:35:16;20.50;99.90
15036;DHT22;7615;48.574;13.474;2023-07-13T00:37:43;20.60;99.90
15036;DHT22;7615;48.574;13.474;2023-07-13T00:40:14;20.60;99.90
15036;DHT22;7615;48.574;13.474;2023-07-13T00:42:42;20.60;99.90
15036;DHT22;7615;48.574;13.474;2023-07-13T00:48:09;20.60;99.90
15036;DHT22;7615;48.574;13.474;2023-07-13T00:50:36;20.60;99.90
15036;DHT22;7615;48.574;13.474;2023-07-13T00:53:04;20.50;99.90
15036;DHT22;7615;48.574;13.474;2023-07-13T00:55:32;20.50;99.90
15036;DHT22;7615;48.574;13.474;2023-07-13T00:58:00;20.60;99.90
15036;DHT22;7615;48.574;13.474;2023-07-13T01:00:29;20.60;99.90
15036;DHT22;7615;48.574;13.474;2023-07-13T01:02:57;20.60;99.90
15036;DHT22;7615;48.574;13.474;2023-07-13T01:05:25;20.60;99.90
15036;DHT22;7615;48.574;13.474;2023-07-13T01:07:53;20.60;99.90
15036;DHT22;7615;48.574;13.474;2023-07-13T01:10:22;20.70;99.90
15036;DHT22;7615;48.574;13.474;2023-07-13T01:12:50;20.70;99.90
15036;DHT22;7615;48.574;13.474;2023-07-13T01:15:38;20.70;99.90
15036;DHT22;7615;48.574;13.474;2023-07-13T01:18:07;20.60;99.90
15036;DHT22;7615;48.574;13.474;2023-07-13T01:20:35;20.60;99.90
15036;DHT22;7615;48.574;13.474;2023-07-13T01:23:07;20.50;99.90
15036;DHT22;7615;48.574;13.474;2023-07-13T01:25:35;20.40;99.90
15036;DHT22;7615;48.574;13.474;2023-07-13T01:28:02;20.40;99.90
15036;DHT22;7615;48.574;13.474;2023-07-13T01:30:29;20.30;99.90
15036;DHT22;7615;48.574;13.474;2023-07-13T01:32:56;20.30;99.90
15036;DHT22;7615;48.574;13.474;2023-07-13T01:35:23;20.40;99.90
15036;DHT22;7615;48.574;13.474;2023-07-13T01:37:52;20.50;99.90
15036;DHT22;7615;48.574;13.474;2023-07-13T01:40:20;20.60;99.90
15036;DHT22;7615;48.574;13.474;2023-07-13T01:42:47;20.60;99.90
15036;DHT22;7615;48.574;13.474;2023-07-13T01:45:14;20.50;99.90
15036;DHT22;7615;48.574;13.474;2023-07-13T01:47:41;20.40;99.90
15036;DHT22;7615;48.574;13.474;2023-07-13T01:50:09;20.40;99.90
15036;DHT22;7615;48.574;13.474;2023-07-13T01:52:36;20.30;99.90
15036;DHT22;7615;48.574;13.474;2023-07-13T01:55:04;20.20;99.90
15036;DHT22;7615;48.574;13.474;2023-07-13T01:57:32;20.30;99.90
15036;DHT22;7615;48.574;13.474;2023-07-13T02:00:02;20.30;99.90
15036;DHT22;7615;48.574;13.474;2023-07-13T02:02:30;20.20;99.90
15036;DHT22;7615;48.574;13.474;2023-07-13T02:04:57;20.20;99.90
15036;DHT22;7615;48.574;13.474;2023-07-13T02:07:23;20.30;99.90
15036;DHT22;7615;48.574;13.474;2023-07-13T02:09:50;20.30;99.90
15036;DHT22;7615;48.574;13.474;2023-07-13T02:12:17;20.30;99.90
15036;DHT22;7615;48.574;13.474;2023-07-13T02:14:45;20.30;99.90
15036;DHT22;7615;48.574;13.474;2023-07-13T02:17:13;20.50;99.90
15036;DHT22;7615;48.574;13.474;2023-07-13T02:19:40;20.50;99.90
15036;DHT22;7615;48.574;13.474;2023-07-13T02:22:07;20.60;99.90
15036;DHT22;7615;48.574;13.474;2023-07-13T02:24:34;20.60;99.90
15036;DHT22;7615;48.574;13.474;2023-07-13T02:27:01;20.60;99.90
15036;DHT22;7615;48.574;13.474;2023-07-13T02:29:27;20.60;99.90
15036;DHT22;7615;48.574;13.474;2023-07-13T02:31:56;20.60;99.90
15036;DHT22;7615;48.574;13.474;2023-07-13T02:34:23;20.60;99.90
15036;DHT22;7615;48.574;13.474;2023-07-13T02:36:49;20.60;99.90
15036;DHT22;7615;48.574;13.474;2023-07-13T02:39:17;20.60;99.90
15036;DHT22;7615;48.574;13.474;2023-07-13T02:41:43;20.70;99.90
15036;DHT22;7615;48.574;13.474;2023-07-13T02:44:12;20.60;99.90
15036;DHT22;7615;48.574;13.474;2023-07-13T02:46:39;20.50;99.90
15036;DHT22;7615;48.574;13.474;2023-07-13T02:49:07;20.60;99.90
15036;DHT22;7615;48.574;13.474;2023-07-13T02:51:34;20.60;99.90
15036;DHT22;7615;48.574;13.474;2023-07-13T02:54:02;20.60;99.90
15036;DHT22;7615;48.574;13.474;2023-07-13T02:56:31;20.70;99.90
15036;DHT22;7615;48.574;13.474;2023-07-13T02:58:58;20.70;99.90
15036;DHT22;7615;48.574;13.474;2023-07-13T03:01:25;20.70;99.90
15036;DHT22;7615;48.574;13.474;2023-07-13T03:03:52;20.70;99.90
15036;DHT22;7615;48.574;13.474;2023-07-13T03:06:21;20.60;99.90
15036;DHT22;7615;48.574;13.474;2023-07-13T03:08:48;20.60;99.90
15036;DHT22;7615;48.574;13.474;2023-07-13T03:11:18;20.60;99.90
15036;DHT22;7615;48.574;13.474;2023-07-13T03:13:45;20.60;99.90
15036;DHT22;7615;48.574;13.474;2023-07-13T03:16:13;20.60;99.90
15036;DHT22;7615;48.574;13.474;2023-07-13T03:18:41;20.60;99.90
15036;DHT22;7615;48.574;13.474;2023-07-13T03:21:08;20.70;99.90
15036;DHT22;7615;48.574;13.474;2023-07-13T03:23:37;20.60;99.90
15036;DHT22;7615;48.574;13.474;2023-07-13T03:26:06;20.60;99.90
15036;DHT22;7615;48.574;13.474;2023-07-13T03:28:34;20.70;99.90
15036;DHT22;7615;48.574;13.474;2023-07-13T03:31:03;20.80;99.90
15036;DHT22;7615;48.574;13.474;2023-07-13T03:33:30;20.70;99.90
15036;DHT22;7615;48.574;13.474;2023-07-13T03:35:58;20.70;99.90
15036;DHT22;7615;48.574;13.474;2023-07-13T03:38:25;20.70;99.90
15036;DHT22;7615;48.574;13.474;2023-07-13T03:40:54;20.70;99.90
15036;DHT22;7615;48.574;13.474;2023-07-13T03:43:21;20.70;99.90
15036;DHT22;7615;48.574;13.474;2023-07-13T03:45:48;20.70;99.90
15036;DHT22;7615;48.574;13.474;2023-07-13T03:48:15;20.80;99.90
15036;DHT22;7615;48.574;13.474;2023-07-13T03:50:42;20.60;99.90
15036;DHT22;7615;48.574;13.474;2023-07-13T03:53:09;20.50;99.90
15036;DHT22;7615;48.574;13.474;2023-07-13T03:55:36;20.40;99.90
15036;DHT22;7615;48.574;13.474;2023-07-13T03:58:25;20.30;99.90
15036;DHT22;7615;48.574;13.474;2023-07-13T04:00:52;20.30;99.90
15036;DHT22;7615;48.574;13.474;2023-07-13T04:03:19;20.30;99.90
15036;DHT22;7615;48.574;13.474;2023-07-13T04:05:46;20.40;99.90
15036;DHT22;7615;48.574;13.474;2023-07-13T04:08:13;20.30;99.90
15036;DHT22;7615;48.574;13.474;2023-07-13T04:10:40;20.20;99.90
15036;DHT22;7615;48.574;13.474;2023-07-13T04:13:07;20.30;99.90
15036;DHT22;7615;48.574;13.474;2023-07-13T04:15:35;20.30;99.90
15036;DHT22;7615;48.574;13.474;2023-07-13T04:18:02;20.20;99.90
15036;DHT22;7615;48.574;13.474;2023-07-13T04:20:29;20.20;99.90
15036;DHT22;7615;48.574;13.474;2023-07-13T04:22:56;20.20;99.90
15036;DHT22;7615;48.574;13.474;2023-07-13T04:25:24;20.30;99.90
15036;DHT22;7615;48.574;13.474;2023-07-13T04:27:51;20.40;99.90
15036;DHT22;7615;48.574;13.474;2023-07-13T04:30:20;20.50;99.90
15036;DHT22;7615;48.574;13.474;2023-07-13T04:32:50;20.40;99.90
15036;DHT22;7615;48.574;13.474;2023-07-13T04:35:17;20.40;99.90
15036;DHT22;7615;48.574;13.474;2023-07-13T04:37:46;20.50;99.90
15036;DHT22;7615;48.574;13.474;2023-07-13T04:40:13;20.60;99.90
15036;DHT22;7615;48.574;13.474;2023-07-13T04:42:39;20.60;99.90
15036;DHT22;7615;48.574;13.474;2023-07-13T04:45:07;20.60;99.90
15036;DHT22;7615;48.574;13.474;2023-07-13T04:47:57;20.60;99.90
15036;DHT22;7615;48.574;13.474;2023-07-13T04:50:54;20.60;99.90
15036;DHT22;7615;48.574;13.474;2023-07-13T04:54:09;20.70;99.90
15036;DHT22;7615;48.574;13.474;2023-07-13T04:57:02;20.70;99.90
15036;DHT22;7615;48.574;13.474;2023-07-13T04:59:30;20.80;99.90
15036;DHT22;7615;48.574;13.474;2023-07-13T05:01:57;20.80;99.90
15036;DHT22;7615;48.574;13.474;2023-07-13T05:04:25;20.80;99.90
15036;DHT22;7615;48.574;13.474;2023-07-13T05:06:52;20.80;99.90
15036;DHT22;7615;48.574;13.474;2023-07-13T05:09:19;20.70;99.90
15036;DHT22;7615;48.574;13.474;2023-07-13T05:11:46;20.70;99.90
15036;DHT22;7615;48.574;13.474;2023-07-13T05:14:12;20.70;99.90
15036;DHT22;7615;48.574;13.474;2023-07-13T05:16:41;20.70;99.90
15036;DHT22;7615;48.574;13.474;2023-07-13T05:19:08;20.80;99.90
15036;DHT22;7615;48.574;13.474;2023-07-13T05:21:36;20.90;99.90
15036;DHT22;7615;48.574;13.474;2023-07-13T05:24:03;21.00;99.90
15036;DHT22;7615;48.574;13.474;2023-07-13T05:26:30;21.00;99.90
15036;DHT22;7615;48.574;13.474;2023-07-13T05:28:57;20.90;99.90
15036;DHT22;7615;48.574;13.474;2023-07-13T05:31:24;20.90;99.90
15036;DHT22;7615;48.574;13.474;2023-07-13T05:33:51;21.10;99.90
15036;DHT22;7615;48.574;13.474;2023-07-13T05:36:18;21.20;99.90
15036;DHT22;7615;48.574;13.474;2023-07-13T05:38:46;21.10;99.90
15036;DHT22;7615;48.574;13.474;2023-07-13T05:41:13;21.10;99.90
15036;DHT22;7615;48.574;13.474;2023-07-13T05:43:40;21.10;99.90
15036;DHT22;7615;48.574;13.474;2023-07-13T05:46:07;20.90;99.90
15036;DHT22;7615;48.574;13.474;2023-07-13T05:48:33;21.00;99.90
15036;DHT22;7615;48.574;13.474;2023-07-13T05:51:01;21.00;99.90
15036;DHT22;7615;48.574;13.474;2023-07-13T05:53:28;21.00;99.90
15036;DHT22;7615;48.574;13.474;2023-07-13T05:55:56;21.10;99.90
15036;DHT22;7615;48.574;13.474;2023-07-13T05:58:23;21.20;99.90
15036;DHT22;7615;48.574;13.474;2023-07-13T06:00:59;21.20;99.90
15036;DHT22;7615;48.574;13.474;2023-07-13T06:03:27;21.20;99.90
15036;DHT22;7615;48.574;13.474;2023-07-13T06:05:53;21.20;99.90
15036;DHT22;7615;48.574;13.474;2023-07-13T06:08:20;21.20;99.90
15036;DHT22;7615;48.574;13.474;2023-07-13T06:10:47;21.20;99.90
15036;DHT22;7615;48.574;13.474;2023-07-13T06:13:16;21.30;99.90
15036;DHT22;7615;48.574;13.474;2023-07-13T06:15:48;21.30;99.90
15036;DHT22;7615;48.574;13.474;2023-07-13T06:18:15;21.40;99.90
15036;DHT22;7615;48.574;13.474;2023-07-13T06:20:42;21.50;99.90
15036;DHT22;7615;48.574;13.474;2023-07-13T06:23:09;21.60;99.90
15036;DHT22;7615;48.574;13.474;2023-07-13T06:25:35;21.50;99.90
15036;DHT22;7615;48.574;13.474;2023-07-13T06:28:03;21.60;99.90
15036;DHT22;7615;48.574;13.474;2023-07-13T06:30:31;21.80;99.90
15036;DHT22;7615;48.574;13.474;2023-07-13T06:32:58;21.80;99.90
15036;DHT22;7615;48.574;13.474;2023-07-13T06:35:25;21.80;99.90
15036;DHT22;7615;48.574;13.474;2023-07-13T06:37:52;21.90;99.90
15036;DHT22;7615;48.574;13.474;2023-07-13T06:40:19;21.90;99.90
15036;DHT22;7615;48.574;13.474;2023-07-13T06:42:46;21.90;99.90
15036;DHT22;7615;48.574;13.474;2023-07-13T06:45:15;21.90;99.90
15036;DHT22;7615;48.574;13.474;2023-07-13T06:47:43;21.80;99.90
15036;DHT22;7615;48.574;13.474;2023-07-13T06:50:10;21.90;99.90
15036;DHT22;7615;48.574;13.474;2023-07-13T06:52:37;21.90;99.90
15036;DHT22;7615;48.574;13.474;2023-07-13T06:55:05;21.90;99.90
15036;DHT22;7615;48.574;13.474;2023-07-13T06:57:32;21.90;99.90
15036;DHT22;7615;48.574;13.474;2023-07-13T07:00:00;22.00;99.90
15036;DHT22;7615;48.574;13.474;2023-07-13T07:02:27;22.00;99.90
15036;DHT22;7615;48.574;13.474;2023-07-13T07:04:55;22.00;99.90
15036;DHT22;7615;48.574;13.474;2023-07-13T07:07:24;22.10;99.90
15036;DHT22;7615;48.574;13.474;2023-07-13T07:09:51;22.10;99.90
15036;DHT22;7615;48.574;13.474;2023-07-13T07:12:18;22.00;99.90
15036;DHT22;7615;48.574;13.474;2023-07-13T07:14:45;22.10;99.90
15036;DHT22;7615;48.574;13.474;2023-07-13T07:17:12;22.00;99.90
15036;DHT22;7615;48.574;13.474;2023-07-13T07:19:39;22.00;99.90
15036;DHT22;7615;48.574;13.474;2023-07-13T07:22:08;22.00;99.90
15036;DHT22;7615;48.574;13.474;2023-07-13T07:24:35;22.00;99.90
15036;DHT22;7615;48.574;13.474;2023-07-13T07:27:02;22.00;99.90
15036;DHT22;7615;48.574;13.474;2023-07-13T07:29:30;22.30;99.90
15036;DHT22;7615;48.574;13.474;2023-07-13T07:31:58;22.60;99.90
15036;DHT22;7615;48.574;13.474;2023-07-13T07:34:26;22.90;99.90
15036;DHT22;7615;48.574;13.474;2023-07-13T07:36:56;22.90;99.90
15036;DHT22;7615;48.574;13.474;2023-07-13T07:39:25;23.00;99.90
15036;DHT22;7615;48.574;13.474;2023-07-13T07:41:52;22.90;99.90
15036;DHT22;7615;48.574;13.474;2023-07-13T07:44:18;23.00;99.90
15036;DHT22;7615;48.574;13.474;2023-07-13T07:46:46;23.10;99.90
15036;DHT22;7615;48.574;13.474;2023-07-13T07:49:14;23.00;99.90
15036;DHT22;7615;48.574;13.474;2023-07-13T07:51:42;22.90;99.90
15036;DHT22;7615;48.574;13.474;2023-07-13T07:54:11;22.80;99.90
15036;DHT22;7615;48.574;13.474;2023-07-13T07:56:40;22.70;99.90
15036;DHT22;7615;48.574;13.474;2023-07-13T07:59:07;22.80;99.90
15036;DHT22;7615;48.574;13.474;2023-07-13T08:01:34;22.90;99.90
15036;DHT22;7615;48.574;13.474;2023-07-13T08:04:00;22.90;99.90
15036;DHT22;7615;48.574;13.474;2023-07-13T08:06:28;23.00;99.90
15036;DHT22;7615;48.574;13.474;2023-07-13T08:08:55;22.90;99.90
15036;DHT22;7615;48.574;13.474;2023-07-13T08:11:22;22.60;99.90
15036;DHT22;7615;48.574;13.474;2023-07-13T08:13:51;22.60;99.90
15036;DHT22;7615;48.574;13.474;2023-07-13T08:16:18;22.60;99.90
15036;DHT22;7615;48.574;13.474;2023-07-13T08:18:45;22.60;99.90
15036;DHT22;7615;48.574;13.474;2023-07-13T08:21:12;22.70;99.90
15036;DHT22;7615;48.574;13.474;2023-07-13T08:23:39;22.60;99.90
15036;DHT22;7615;48.574;13.474;2023-07-13T08:26:06;22.60;99.90
15036;DHT22;7615;48.574;13.474;2023-07-13T08:28:33;22.60;99.90
15036;DHT22;7615;48.574;13.474;2023-07-13T08:31:02;22.60;99.90
15036;DHT22;7615;48.574;13.474;2023-07-13T08:33:30;22.70;99.90
15036;DHT22;7615;48.574;13.474;2023-07-13T08:35:57;22.70;99.90
15036;DHT22;7615;48.574;13.474;2023-07-13T08:38:25;22.80;99.90
15036;DHT22;7615;48.574;13.474;2023-07-13T08:40:54;22.90;99.90
15036;DHT22;7615;48.574;13.474;2023-07-13T08:43:25;23.10;99.90
15036;DHT22;7615;48.574;13.474;2023-07-13T08:45:55;23.40;99.90
15036;DHT22;7615;48.574;13.474;2023-07-13T08:48:26;23.40;99.90
15036;DHT22;7615;48.574;13.474;2023-07-13T08:53:57;23.50;99.90
15036;DHT22;7615;48.574;13.474;2023-07-13T08:56:28;23.60;99.90
15036;DHT22;7615;48.574;13.474;2023-07-13T08:58:58;23.40;99.90
15036;DHT22;7615;48.574;13.474;2023-07-13T09:04:46;23.30;99.90
15036;DHT22;7615;48.574;13.474;2023-07-13T09:07:21;23.50;99.90
15036;DHT22;7615;48.574;13.474;2023-07-13T09:10:05;23.70;99.90
15036;DHT22;7615;48.574;13.474;2023-07-13T09:12:45;23.80;99.90
15036;DHT22;7615;48.574;13.474;2023-07-13T09:15:24;23.90;99.90
15036;DHT22;7615;48.574;13.474;2023-07-13T09:17:53;24.10;99.90
15036;DHT22;7615;48.574;13.474;2023-07-13T09:20:26;24.10;99.90
15036;DHT22;7615;48.574;13.474;2023-07-13T09:22:55;23.80;99.90
15036;DHT22;7615;48.574;13.474;2023-07-13T09:25:27;24.00;99.90
15036;DHT22;7615;48.574;13.474;2023-07-13T09:27:59;24.10;99.90
15036;DHT22;7615;48.574;13.474;2023-07-13T09:30:33;24.20;99.90
15036;DHT22;7615;48.574;13.474;2023-07-13T09:33:00;24.10;99.90
15036;DHT22;7615;48.574;13.474;2023-07-13T09:35:30;23.90;99.90
15036;DHT22;7615;48.574;13.474;2023-07-13T09:38:01;23.70;99.90
15036;DHT22;7615;48.574;13.474;2023-07-13T09:40:37;23.60;99.90
15036;DHT22;7615;48.574;13.474;2023-07-13T09:43:08;23.90;99.90
15036;DHT22;7615;48.574;13.474;2023-07-13T09:45:37;24.00;99.90
15036;DHT22;7615;48.574;13.474;2023-07-13T09:48:07;24.10;99.90
15036;DHT22;7615;48.574;13.474;2023-07-13T09:50:35;24.30;99.90
15036;DHT22;7615;48.574;13.474;2023-07-13T09:53:02;24.30;99.90
15036;DHT22;7615;48.574;13.474;2023-07-13T09:55:31;24.30;99.90
15036;DHT22;7615;48.574;13.474;2023-07-13T09:58:03;24.40;99.90
15036;DHT22;7615;48.574;13.474;2023-07-13T10:00:31;24.60;99.90
15036;DHT22;7615;48.574;13.474;2023-07-13T10:03:00;24.60;99.90
15036;DHT22;7615;48.574;13.474;2023-07-13T10:05:39;24.70;99.90
15036;DHT22;7615;48.574;13.474;2023-07-13T10:08:09;24.70;99.90
15036;DHT22;7615;48.574;13.474;2023-07-13T10:10:41;25.00;99.90
15036;DHT22;7615;48.574;13.474;2023-07-13T10:13:24;25.20;99.90
15036;DHT22;7615;48.574;13.474;2023-07-13T10:15:52;25.20;99.90
15036;DHT22;7615;48.574;13.474;2023-07-13T10:18:20;25.20;99.90
15036;DHT22;7615;48.574;13.474;2023-07-13T10:20:51;25.10;99.90
15036;DHT22;7615;48.574;13.474;2023-07-13T10:23:23;25.10;99.90
15036;DHT22;7615;48.574;13.474;2023-07-13T10:25:53;25.00;99.90
15036;DHT22;7615;48.574;13.474;2023-07-13T10:28:27;25.10;99.90
15036;DHT22;7615;48.574;13.474;2023-07-13T10:30:56;25.00;99.90
15036;DHT22;7615;48.574;13.474;2023-07-13T10:33:25;25.00;99.90
15036;DHT22;7615;48.574;13.474;2023-07-13T10:36:01;24.90;99.90
15036;DHT22;7615;48.574;13.474;2023-07-13T10:38:30;24.70;99.90
15036;DHT22;7615;48.574;13.474;2023-07-13T10:41:01;24.70;99.90
15036;DHT22;7615;48.574;13.474;2023-07-13T10:43:34;24.90;99.90
15036;DHT22;7615;48.574;13.474;2023-07-13T10:46:04;25.10;99.90
15036;DHT22;7615;48.574;13.474;2023-07-13T10:48:34;24.90;99.90
15036;DHT22;7615;48.574;13.474;2023-07-13T10:51:05;25.10;99.90
15036;DHT22;7615;48.574;13.474;2023-07-13T10:53:34;25.10;99.90
15036;DHT22;7615;48.574;13.474;2023-07-13T10:56:03;24.90;99.90
15036;DHT22;7615;48.574;13.474;2023-07-13T10:58:35;24.70;99.90
15036;DHT22;7615;48.574;13.474;2023-07-13T11:01:08;24.70;99.90
15036;DHT22;7615;48.574;13.474;2023-07-13T11:03:37;24.60;99.90
15036;DHT22;7615;48.574;13.474;2023-07-13T11:06:13;24.50;99.90
15036;DHT22;7615;48.574;13.474;2023-07-13T11:08:52;24.40;99.90
15036;DHT22;7615;48.574;13.474;2023-07-13T11:11:35;24.40;99.90
15036;DHT22;7615;48.574;13.474;2023-07-13T11:14:04;24.20;99.90
15036;DHT22;7615;48.574;13.474;2023-07-13T11:16:51;24.20;99.90
15036;DHT22;7615;48.574;13.474;2023-07-13T11:19:40;24.20;99.90
15036;DHT22;7615;48.574;13.474;2023-07-13T11:22:15;24.20;99.90
15036;DHT22;7615;48.574;13.474;2023-07-13T11:24:58;24.20;99.90
15036;DHT22;7615;48.574;13.474;2023-07-13T11:27:38;24.00;99.90
15036;DHT22;7615;48.574;13.474;2023-07-13T11:30:31;23.90;99.90
15036;DHT22;7615;48.574;13.474;2023-07-13T11:33:10;23.90;99.90
15036;DHT22;7615;48.574;13.474;2023-07-13T11:35:52;23.80;99.90
15036;DHT22;7615;48.574;13.474;2023-07-13T11:38:27;23.80;99.90
15036;DHT22;7615;48.574;13.474;2023-07-13T11:40:56;24.00;99.90
15036;DHT22;7615;48.574;13.474;2023-07-13T11:43:25;24.00;99.90
15036;DHT22;7615;48.574;13.474;2023-07-13T11:45:52;23.90;99.90
15036;DHT22;7615;48.574;13.474;2023-07-13T11:48:21;23.90;99.90
15036;DHT22;7615;48.574;13.474;2023-07-13T11:50:56;23.90;99.90
15036;DHT22;7615;48.574;13.474;2023-07-13T11:53:27;23.90;99.90
15036;DHT22;7615;48.574;13.474;2023-07-13T11:55:57;23.90;99.90
15036;DHT22;7615;48.574;13.474;2023-07-13T11:58:29;23.90;99.90
15036;DHT22;7615;48.574;13.474;2023-07-13T12:00:59;24.10;99.90
15036;DHT22;7615;48.574;13.474;2023-07-13T12:03:33;24.40;99.90
15036;DHT22;7615;48.574;13.474;2023-07-13T12:06:02;24.60;99.90
15036;DHT22;7615;48.574;13.474;2023-07-13T12:08:38;24.90;99.90
15036;DHT22;7615;48.574;13.474;2023-07-13T12:11:14;24.80;99.90
15036;DHT22;7615;48.574;13.474;2023-07-13T12:13:43;24.90;99.90
15036;DHT22;7615;48.574;13.474;2023-07-13T12:16:13;25.10;99.90
15036;DHT22;7615;48.574;13.474;2023-07-13T12:18:43;25.30;99.90
15036;DHT22;7615;48.574;13.474;2023-07-13T12:21:14;25.60;99.90
15036;DHT22;7615;48.574;13.474;2023-07-13T12:23:47;25.40;99.90
15036;DHT22;7615;48.574;13.474;2023-07-13T12:26:15;25.30;99.90
15036;DHT22;7615;48.574;13.474;2023-07-13T12:28:46;25.40;99.90
15036;DHT22;7615;48.574;13.474;2023-07-13T12:31:29;25.40;99.90
15036;DHT22;7615;48.574;13.474;2023-07-13T12:33:57;25.40;99.90
15036;DHT22;7615;48.574;13.474;2023-07-13T12:36:25;25.30;99.90
15036;DHT22;7615;48.574;13.474;2023-07-13T12:38:54;25.30;99.90
15036;DHT22;7615;48.574;13.474;2023-07-13T12:41:21;25.40;99.90
15036;DHT22;7615;48.574;13.474;2023-07-13T12:43:49;25.40;99.90
15036;DHT22;7615;48.574;13.474;2023-07-13T12:46:18;25.50;99.90
15036;DHT22;7615;48.574;13.474;2023-07-13T12:48:48;25.70;99.90
15036;DHT22;7615;48.574;13.474;2023-07-13T12:51:20;25.90;99.90
15036;DHT22;7615;48.574;13.474;2023-07-13T12:53:49;26.00;99.90
15036;DHT22;7615;48.574;13.474;2023-07-13T12:56:22;25.70;99.90
15036;DHT22;7615;48.574;13.474;2023-07-13T12:58:56;25.60;99.90
15036;DHT22;7615;48.574;13.474;2023-07-13T13:01:27;25.90;99.90
15036;DHT22;7615;48.574;13.474;2023-07-13T13:03:54;26.20;99.90
15036;DHT22;7615;48.574;13.474;2023-07-13T13:06:24;26.70;99.90
15036;DHT22;7615;48.574;13.474;2023-07-13T13:08:54;26.80;99.90
15036;DHT22;7615;48.574;13.474;2023-07-13T13:11:24;27.00;99.90
15036;DHT22;7615;48.574;13.474;2023-07-13T13:13:52;26.40;99.90
15036;DHT22;7615;48.574;13.474;2023-07-13T13:16:23;26.10;99.90
15036;DHT22;7615;48.574;13.474;2023-07-13T13:18:53;26.10;99.90
15036;DHT22;7615;48.574;13.474;2023-07-13T13:21:23;26.40;99.90
15036;DHT22;7615;48.574;13.474;2023-07-13T13:23:50;26.50;99.90
15036;DHT22;7615;48.574;13.474;2023-07-13T13:26:23;26.50;99.90
15036;DHT22;7615;48.574;13.474;2023-07-13T13:28:52;26.50;99.90
15036;DHT22;7615;48.574;13.474;2023-07-13T13:31:20;26.70;99.90
15036;DHT22;7615;48.574;13.474;2023-07-13T13:33:47;26.80;99.90
15036;DHT22;7615;48.574;13.474;2023-07-13T13:36:15;26.70;99.90
15036;DHT22;7615;48.574;13.474;2023-07-13T13:38:43;26.90;99.90
15036;DHT22;7615;48.574;13.474;2023-07-13T13:41:11;26.70;99.90
15036;DHT22;7615;48.574;13.474;2023-07-13T13:43:39;26.50;99.90
15036;DHT22;7615;48.574;13.474;2023-07-13T13:46:14;26.50;99.90
15036;DHT22;7615;48.574;13.474;2023-07-13T13:48:42;27.00;99.90
15036;DHT22;7615;48.574;13.474;2023-07-13T13:51:15;26.60;99.90
15036;DHT22;7615;48.574;13.474;2023-07-13T13:53:43;26.40;99.90
15036;DHT22;7615;48.574;13.474;2023-07-13T13:56:11;26.30;99.90
15036;DHT22;7615;48.574;13.474;2023-07-13T13:58:38;26.40;99.90
15036;DHT22;7615;48.574;13.474;2023-07-13T14:01:10;26.70;99.90
15036;DHT22;7615;48.574;13.474;2023-07-13T14:03:38;27.10;99.90
15036;DHT22;7615;48.574;13.474;2023-07-13T14:06:05;26.90;99.90
15036;DHT22;7615;48.574;13.474;2023-07-13T14:08:32;26.60;99.90
15036;DHT22;7615;48.574;13.474;2023-07-13T14:10:59;26.40;99.90
15036;DHT22;7615;48.574;13.474;2023-07-13T14:13:31;26.30;99.90
15036;DHT22;7615;48.574;13.474;2023-07-13T19:03:51;23.40;99.90
15036;DHT22;7615;48.574;13.474;2023-07-13T19:06:18;23.50;99.90
15036;DHT22;7615;48.574;13.474;2023-07-13T19:08:46;23.30;99.90
15036;DHT22;7615;48.574;13.474;2023-07-13T19:11:17;23.10;99.90
15036;DHT22;7615;48.574;13.474;2023-07-13T19:13:44;23.00;99.90
15036;DHT22;7615;48.574;13.474;2023-07-13T19:16:16;22.90;99.90
15036;DHT22;7615;48.574;13.474;2023-07-13T19:18:43;22.80;99.90
15036;DHT22;7615;48.574;13.474;2023-07-13T19:21:26;22.80;99.90
15036;DHT22;7615;48.574;13.474;2023-07-13T19:23:55;22.70;99.90
15036;DHT22;7615;48.574;13.474;2023-07-13T19:26:24;22.80;99.90
15036;DHT22;7615;48.574;13.474;2023-07-13T19:28:54;22.80;99.90
15036;DHT22;7615;48.574;13.474;2023-07-13T19:31:24;22.80;99.90
15036;DHT22;7615;48.574;13.474;2023-07-13T19:33:52;22.60;99.90
15036;DHT22;7615;48.574;13.474;2023-07-13T19:36:21;22.60;99.90
15036;DHT22;7615;48.574;13.474;2023-07-13T19:38:50;22.50;99.90
15036;DHT22;7615;48.574;13.474;2023-07-13T19:41:19;22.50;99.90
15036;DHT22;7615;48.574;13.474;2023-07-13T19:43:48;22.50;99.90
15036;DHT22;7615;48.574;13.474;2023-07-13T19:46:22;22.50;99.90
15036;DHT22;7615;48.574;13.474;2023-07-13T19:48:51;22.40;99.90
15036;DHT22;7615;48.574;13.474;2023-07-13T19:51:20;22.30;99.90
15036;DHT22;7615;48.574;13.474;2023-07-13T19:53:48;22.30;99.90
15036;DHT22;7615;48.574;13.474;2023-07-13T19:56:16;22.30;99.90
15036;DHT22;7615;48.574;13.474;2023-07-13T19:58:43;22.20;99.90
15036;DHT22;7615;48.574;13.474;2023-07-13T20:01:11;22.10;99.90
15036;DHT22;7615;48.574;13.474;2023-07-13T20:03:38;22.10;99.90
15036;DHT22;7615;48.574;13.474;2023-07-13T20:06:15;22.00;99.90
15036;DHT22;7615;48.574;13.474;2023-07-13T20:08:48;22.00;99.90
15036;DHT22;7615;48.574;13.474;2023-07-13T20:11:15;22.00;99.90
15036;DHT22;7615;48.574;13.474;2023-07-13T20:13:43;21.90;99.90
15036;DHT22;7615;48.574;13.474;2023-07-13T20:16:12;21.90;99.90
15036;DHT22;7615;48.574;13.474;2023-07-13T20:18:41;21.80;99.90
15036;DHT22;7615;48.574;13.474;2023-07-13T20:21:10;21.70;99.90
15036;DHT22;7615;48.574;13.474;2023-07-13T20:23:38;21.70;99.90
15036;DHT22;7615;48.574;13.474;2023-07-13T20:26:08;21.70;99.90
15036;DHT22;7615;48.574;13.474;2023-07-13T20:28:35;21.70;99.90
15036;DHT22;7615;48.574;13.474;2023-07-13T20:31:05;21.70;99.90
15036;DHT22;7615;48.574;13.474;2023-07-13T20:33:37;21.60;99.90
15036;DHT22;7615;48.574;13.474;2023-07-13T20:36:05;21.60;99.90
15036;DHT22;7615;48.574;13.474;2023-07-13T20:41:00;21.40;99.90
15036;DHT22;7615;48.574;13.474;2023-07-13T20:43:29;21.10;99.90